Ride Results

Oakhampton (25-03-2012)
Ride distance: 80.0 km

Outcomes - Oakhampton (25-03-2012)
Division No. of Entries Retired / DNE Completed Withdrawn Ineligible V/O Percentage Completed
HW 20 - 17 1 - 2 85.00%
MW 30 - 23 3 - 4 76.67%
LW 19 - 17 - - 2 89.47%
JN 5 - 3 1 - 1 60.00%
Totals 74 - 60 5 - 9 81.08%
Results - Oakhampton (25-03-2012)
No. Rider Horse Place Time Leg Speeds Total
Km/Hr
H/R bpm
Heavyweight
11 Allan Caslick A'Landell Spirit 1 (BC) 3:49:00 20.8, 21.0 20.96 39, 47, 44 (Avg:45)
54 Paddy Smith Akifa Farras Titan 2 5:03:00 19.9, 13.1 15.84 35, 42, 53 (Avg:47)
19 Lyall Cameron Master Bobby 3 5:42:00 15.3, 12.9 14.04 34, 40, 49 (Avg:44)
30 Gary Thomas Ben Mariah 4 6:55:00 13.1, 10.3 11.57 36, 48, 47 (Avg:47)
36 Marita Rifai Tuldar Slingshot 5 7:04:00 14.2, 9.4 11.32 36, 44, 56 (Avg:50)
10 Tami Parnell Churinga Flyer 6 7:14:00 12.4, 9.9 11.06 44, 51, 50 (Avg:50)
9 Marylou Locke Ally 7 7:17:00 13.4, 9.2 10.98 30, 40, 45 (Avg:42)
16 Haydn Fisher Arasarta Narhalinian 8 7:26:00 11.5, 10.0 10.76 37, 40, 60 (Avg:50)
51 Gary Pevy Texas Cowboy 9 7:28:00 10.7, 10.6 10.71 40, 52, 60 (Avg:56)
62 Roy Barsby Dumaresq Buzz 10 7:54:00 10.3, 9.8 10.13 36, 42, 47 (Avg:44)
34 Phil Coleman Rainbows Reach Snowfyre 10 7:54:00 10.5, 9.7 10.13 42, 51, 53 (Avg:52)
3 Frank Flissinger Ranjen Spotted Feather 10 7:54:00 10.3, 9.8 10.13 34, 42, 59 (Avg:50)
49 Peter Strickland Rivergum Zara 10 7:54:00 10.3, 9.9 10.13 30, 36, 38 (Avg:37)
66 Hannah Barton Santander Aladdin 14 8:14:00 13.3, 7.6 9.72 48, 48, 56 (Avg:52)
22 Jennifer Hargraves Baringa Expectations 15 8:18:00 9.4, 9.8 9.64 37, 42, 43 (Avg:42)
73 Brad Jones Karrana Crackerjack 16 8:26:00 11.4, 8.0 9.49 33, 55, 58 (Avg:56)
69 Stuart Hitchcock Ralvon Courier 17 8:27:00 13.0, 7.4 9.47 41, 54, 53 (Avg:53)
4 Steve Broadbent Sahateyn Star Dancer Lame L2 0:00:00 13.3, 9.7 - 39, 39, 54 (Avg:46)
39 Greg Moore Parkview Armageddon Withdrawn L1 0:00:00 - - 39, 50 (Avg:50)
38 Marlee Turnbull Stinky Lame L1 0:00:00 2.2 - 42, 0 (Avg:0)
Middleweight
17 Garry Bennett Karabil Yaningi 1 (BC) 4:34:00 20.5, 15.2 17.52 36, 42, 42 (Avg:42)
56 David Urquhart Sahateyn Romeo 1 4:34:00 20.1, 15.4 17.52 38, 40, 43 (Avg:41)
27 Raymond Griffiths Hazeldean Sahara 3 5:05:00 17.3, 14.3 15.74 40, 50, 54 (Avg:52)
41 Mette Sutton Tuldar The Magician 4 5:09:00 15.4, 15.5 15.53 33, 42, 54 (Avg:48)
5 Tracey Hutchinson Junabee Park Shamekha 5 5:10:00 16.4, 14.6 15.48 40, 40, 44 (Avg:42)
12 Sandi Brown Ithilien Arwen 6 6:04:00 14.4, 12.1 13.19 44, 40, 48 (Avg:44)
31 Ashley Thomas Nyora Dust of Gold 7 6:55:00 13.1, 10.3 11.57 36, 44, 42 (Avg:43)
37 Garry Weis Carjola Park Prince Shahwan 8 7:04:00 14.2, 9.4 11.32 32, 48, 52 (Avg:50)
25 Ben Hudson Littlebanks Emira 9 7:13:00 13.3, 9.4 11.09 33, 48, 45 (Avg:46)
1 Terri McLeod Ramalea Mary 10 7:17:00 13.3, 9.3 10.98 32, 41, 48 (Avg:44)
35 Ruth Van der Wegen Razorback Kendra 11 7:20:00 11.8, 10.0 10.91 40, 46, 49 (Avg:47)
52 Debbie Pevy Churinga Lite Mi Fire 12 7:28:00 10.7, 10.6 10.71 37, 40, 53 (Avg:46)
48 Rochelle Knihinicki Velona Amadi 13 7:36:00 10.1, 10.9 10.53 41, 50, 60 (Avg:55)
63 Chris Noonan Coolinda Park Chynzo 14 7:54:00 10.3, 9.8 10.13 42, 48, 53 (Avg:50)
59 Judith Burton Woodbourne Star Flash 15 8:08:00 10.8, 8.9 9.84 40, 45, 52 (Avg:48)
65 Dean Walkom Santa Pasa Zaraq 16 8:14:00 13.3, 7.6 9.72 40, 45, 50 (Avg:47)
55 Allison Knihinicki Arabiana Shaklisha 17 8:22:00 10.1, 9.0 9.56 36, 48, 55 (Avg:51)
67 Victoria Bonham Bridle Track Bogart 18 8:25:00 10.8, 8.4 9.50 42, 41, 51 (Avg:46)
60 Terry Wood Tallawarra Destiny 18 8:25:00 9.4, 9.5 9.50 35, 40, 45 (Avg:42)
70 April Bonham Lyndrian Genesis 20 8:27:00 10.9, 8.3 9.47 36, 41, 44 (Avg:42)
32 Rod Cox Tyson 21 8:33:00 10.5, 8.4 9.36 39, 42, 56 (Avg:49)
14 Frances Mudford Foxridge Merlyn 22 8:51:00 9.6, 8.5 9.04 42, 46, 51 (Avg:48)
13 Sonya Ruprecht Yahweh-Salih Rasami 22 8:51:00 9.6, 8.5 9.04 32, 40, 47 (Avg:43)
23 Michael Combe Nasr Heart Rate L2 0:00:00 13.6, 10.6 - 34, 51, 65 (Avg:58)
40 Jennifer Gilbertson Coolahlee Park Saraba Lame L2 0:00:00 15.4, 15.5 - 37, 40, 45 (Avg:42)
50 Darryl King Shanadarr Khaleel Heart Rate L2 0:00:00 14.8, 11.8 - 36, 42, 62 (Avg:52)
26 Rebecca Fletcher Littlebanks Antwonett Withdrawn L1 0:00:00 - - 40, 53 (Avg:53)
28 Peter Kelly Kerewong Mingus Withdrawn L1 0:00:00 - - 53, 50 (Avg:50)
57 Tangara Nolan A Primadonna Heart Rate L1 0:00:00 13.2 - 50, 62 (Avg:62)
8 Thomas Hermann TTH Headliner Withdrawn P/R 0:00:00 - - 33
Lightweight
6 Libby Jones Beau Val Feodora 1 (BC) 5:10:00 16.4, 14.6 15.48 46, 43, 47 (Avg:45)
29 Anne Hills Kerewong Shelfyre 2 5:42:00 15.8, 12.5 14.04 40, 38, 55 (Avg:46)
44 Emma Broome Adios 3 5:58:00 14.4, 12.4 13.41 39, 39, 48 (Avg:43)
42 Pip Lillyman Zenith Park Shiloh 4 6:32:00 14.4, 10.6 12.24 32, 48, 50 (Avg:49)
47 Julie Brooks Aloha Byshara 5 6:41:00 13.2, 10.9 11.97 35, 42, 52 (Avg:47)
24 Caroline Windle Sarina Rosetta 5 6:41:00 13.6, 10.6 11.97 33, 44, 56 (Avg:50)
7 Clare Fleming Ramalea Nick 7 6:42:00 13.3, 10.8 11.94 37, 39, 43 (Avg:41)
18 Jennifer Annetts Tallawarra Jazardis 8 7:13:00 12.4, 9.9 11.09 35, 44, 47 (Avg:45)
15 Kate Pilley Yahweh-Salih Sirpreme Dream 9 7:26:00 11.5, 10.0 10.76 36, 44, 56 (Avg:50)
45 Sue Todd Shalacey Bear 9 7:26:00 11.5, 10.0 10.76 37, 43, 47 (Avg:45)
21 Melissa Attwell Red Legend 11 7:36:00 11.5, 9.6 10.53 32, 52, 52 (Avg:52)
2 Belle Bollard Bondale Brown 12 7:51:00 10.3, 9.9 10.19 40, 40, 56 (Avg:48)
33 Ros Ryan Cloudburst 13 7:54:00 10.5, 9.7 10.13 47, 44, 53 (Avg:48)
64 Deanna Trevena Kalkadoon Lucifer 13 7:54:00 10.3, 9.8 10.13 44, 43, 54 (Avg:48)
72 Allix Jones Castlebar First Light 15 8:21:00 10.5, 8.7 9.58 38, 39, 41 (Avg:40)
74 Wendy Jones Shellal Cattle King Flyte 15 8:21:00 10.5, 8.7 9.58 40, 41, 40 (Avg:40)
20 Neroli Mitchell- Cooper Burralga Jamieson 17 8:22:00 11.5, 8.1 9.56 36, 48, 46 (Avg:47)
58 Susan Woodward Tallawarra Holly Lame L2 0:00:00 9.4, 10.2 - 40, 42, 48 (Avg:45)
71 Karen Anderson Jubalani Jasper Lame P/R 0:00:00 - - 41
Junior
43 Andrew Mackinder Sundown Park Cariad 1 (BC) 5:58:00 14.4, 12.4 13.41 37, 40, 41 (Avg:40)
53 Tomeika Bond-Pevy Makhtar 2 7:28:00 10.7, 10.6 10.71 36, 44, 58 (Avg:51)
61 Jasmine Shields Woodbourne Kitty Hawk 3 8:38:00 9.4, 9.0 9.27 35, 40, 43 (Avg:41)
46 Rachael Hartas Splitters Creek Ruby Withdrawn L2 0:00:00 - - 47, 45, 57 (Avg:51)
68 Indigo Noonan Orr-Brae Rajiyaah Lame L2 0:00:00 10.8, 8.4 - 42, 39, 46 (Avg:42)